Catàleg de serveis del Meteocat
Campanya meteocatpedra

Dades de l'estació automàtica Torres de Segre

?
?
Resum diari 23:00 TU
Dades diàries de l'estació meteorològica
Temperatura mitjana 25.0 °C
Temperatura màxima 33.2 °C 16:31 TU
Temperatura mínima 17.5 °C 4:32 TU
Humitat relativa mitjana 50%
Precipitació acumulada 0.0 mm
Ratxa màxima del vent (2 m) 20.9 km/h - 238º 13:30 TU
Irradiació solar global 29.8 MJ/m2

El tram horari està expressat en Temps Universal (TU). Cal sumar una hora en horari d'hivern i dues en horari d'estiu per passar a l'hora oficial.

Torres de Segre

Metadades estació meteorol´gica
Municipi Torres de Segre
Comarca Segrià
Altitud 215 m
Data alta 02.07.2007
Estat actual Operativa
Dades de període
Període
TU
TM
°C
TX
°C
TN
°C
HRM
%
PPT
mm
VVM (2 m)
km/h
DVM (2 m)
graus
VVX (2 m)
km/h
RS
W/m2
00:00 - 00:30 21.0 21.2 20.8 63 0.0 9.4 229 15.8 0
00:30 - 01:00 20.7 20.8 20.5 62 0.0 10.4 241 17.3 0
01:00 - 01:30 20.3 20.5 19.8 64 0.0 9.4 233 18.0 0
01:30 - 02:00 19.6 19.8 19.1 66 0.0 6.8 214 11.9 0
02:00 - 02:30 18.9 19.1 18.8 68 0.0 6.1 203 10.1 0
02:30 - 03:00 18.8 19.1 18.7 67 0.0 8.3 206 13.0 0
03:00 - 03:30 18.6 18.8 18.4 67 0.0 7.6 220 12.2 0
03:30 - 04:00 18.5 18.6 18.3 67 0.0 7.9 227 11.9 0
04:00 - 04:30 18.0 18.3 17.7 70 0.0 5.8 196 10.1 0
04:30 - 05:00 17.7 18.0 17.5 69 0.0 6.8 181 11.9 8
05:00 - 05:30 18.0 18.2 17.8 69 0.0 6.5 193 11.2 40
05:30 - 06:00 18.4 18.9 17.9 70 0.0 5.8 214 9.7 116
06:00 - 06:30 19.2 19.6 18.9 67 0.0 7.6 233 14.8 220
06:30 - 07:00 20.0 20.3 19.6 65 0.0 9.4 240 15.5 314
07:00 - 07:30 20.4 20.8 20.1 64 0.0 10.4 239 18.0 403
07:30 - 08:00 21.3 21.7 20.8 62 0.0 7.6 245 14.4 489
08:00 - 08:30 22.1 22.9 21.5 61 0.0 8.6 239 19.1 574
08:30 - 09:00 22.9 23.8 22.6 59 0.0 8.6 251 18.7 659
09:00 - 09:30 23.9 24.5 23.2 56 0.0 7.9 260 15.5 738
09:30 - 10:00 24.7 25.8 23.9 54 0.0 7.6 256 17.3 809
10:00 - 10:30 25.7 26.4 25.0 51 0.0 7.2 286 18.0 871
10:30 - 11:00 26.6 27.2 26.1 49 0.0 7.6 283 17.3 923
11:00 - 11:30 27.7 28.4 27.1 46 0.0 6.5 273 16.2 952
11:30 - 12:00 28.5 29.5 27.7 40 0.0 7.2 282 16.6 969
12:00 - 12:30 29.3 30.2 28.6 38 0.0 6.1 255 16.2 966
12:30 - 13:00 29.9 30.6 29.3 36 0.0 6.5 266 16.2 956
13:00 - 13:30 30.5 31.1 29.8 35 0.0 7.6 266 16.2 931
13:30 - 14:00 31.1 31.7 30.7 35 0.0 7.9 277 20.9 887
14:00 - 14:30 31.3 31.7 30.9 33 0.0 8.6 263 18.0 841
14:30 - 15:00 31.7 32.2 31.0 33 0.0 6.1 282 15.1 765
15:00 - 15:30 31.8 32.1 31.5 32 0.0 6.8 261 15.1 697
15:30 - 16:00 32.1 32.6 31.5 32 0.0 6.5 282 14.4 618
16:00 - 16:30 32.6 33.1 32.2 29 0.0 6.8 268 19.1 537
16:30 - 17:00 32.8 33.2 32.3 28 0.0 4.7 301 14.0 448
17:00 - 17:30 32.5 32.9 32.2 25 0.0 8.6 273 20.2 356
17:30 - 18:00 31.6 32.1 31.1 27 0.0 9.4 251 15.5 259
18:00 - 18:30 30.6 31.1 30.1 31 0.0 7.6 232 13.7 161
18:30 - 19:00 29.7 30.3 28.7 32 0.0 6.5 255 13.7 77
19:00 - 19:30 28.3 28.8 27.6 37 0.0 6.8 249 11.5 14
19:30 - 20:00 27.0 27.7 26.6 39 0.0 6.8 228 11.5 0
20:00 - 20:30 26.5 26.9 26.2 40 0.0 7.2 225 12.2 0
20:30 - 21:00 25.9 26.1 25.4 41 0.0 5.4 210 9.0 0
21:00 - 21:30 24.8 25.3 24.5 42 0.0 7.2 184 13.7 0
21:30 - 22:00 24.4 24.7 24.1 40 0.0 9.4 194 15.1 0
22:00 - 22:30 24.0 24.4 23.5 46 0.0 9.7 177 15.8 0
22:30 - 23:00 23.3 23.5 23.2 58 0.0 11.5 181 18.0 0
23:00 - 23:30 22.8 23.2 22.6 63 0.0 11.2 182 18.7 0

Les dades en taronja només han passat un control de qualitat automàtic. Resta pendent la seva validació definitiva.